Time;durP1;ratioP1;P1;durP2;ratioP2;P2;SDS_P1;SDS_P2;PMS_P1;PMS_P2;Temp;Humidity;BMP_temperature;BMP_pressure;BME280_temperature;BME280_humidity;BME280_pressure;Samples;Min_cycle;Max_cycle;Signal;HPM_P1;HPM_P2
2021/09/30 00:00:43;;;;;;;3.40;1.10;;;10.50;91.00;;;;;;5072097;28;20266;-89
2021/09/30 00:03:12;;;;;;;3.77;1.30;;;10.60;91.10;;;;;;5072027;28;20171;-88
2021/09/30 00:05:38;;;;;;;8.83;1.83;;;10.50;91.40;;;;;;5073223;28;20199;-88
2021/09/30 00:08:05;;;;;;;2.73;1.30;;;10.60;91.40;;;;;;5071902;28;20211;-88
2021/09/30 00:10:32;;;;;;;9.80;1.50;;;10.60;91.10;;;;;;5072249;28;20175;-88
2021/09/30 00:13:02;;;;;;;10.40;1.97;;;10.60;91.00;;;;;;5073258;28;20273;-88
2021/09/30 00:15:54;;;;;;;4.07;1.33;;;10.50;91.40;;;;;;5072287;28;20181;-89
2021/09/30 00:35:19;;;;;;;3.17;1.83;;;10.70;91.30;;;;;;5073412;28;20163;-87
2021/09/30 00:46:00;;;;;;;8.17;2.07;;;10.70;91.30;;;;;;5073463;28;20162;-87
2021/09/30 00:51:21;;;;;;;7.30;2.47;;;10.70;92.00;;;;;;5072928;28;20167;-88
2021/09/30 01:20:11;;;;;;;10.50;1.90;;;10.70;91.80;;;;;;5076344;28;20329;-88
2021/09/30 02:20:35;;;;;;;11.17;2.50;;;10.60;92.00;;;;;;5075171;28;20212;-88
2021/09/30 02:39:45;;;;;;;17.00;2.47;;;10.50;91.20;;;;;;5074829;28;20703;-88
2021/09/30 02:58:49;;;;;;;7.03;1.70;;;10.50;90.70;;;;;;5074517;28;20255;-88
2021/09/30 03:01:19;;;;;;;6.10;1.43;;;10.50;89.90;;;;;;5072904;28;20175;-88
2021/09/30 03:03:46;;;;;;;11.43;2.00;;;10.50;89.80;;;;;;5073685;28;20163;-89
2021/09/30 03:06:13;;;;;;;4.17;1.43;;;10.60;89.60;;;;;;5072801;28;20229;-88
2021/09/30 03:08:44;;;;;;;10.17;2.67;;;10.50;89.60;;;;;;5074119;28;20253;-88
2021/09/30 03:11:10;;;;;;;4.27;1.20;;;10.50;89.70;;;;;;5073949;28;20620;-88
2021/09/30 03:13:38;;;;;;;9.63;1.93;;;10.50;89.60;;;;;;5072702;28;20172;-88
2021/09/30 03:16:12;;;;;;;7.03;1.40;;;10.50;89.70;;;;;;5072599;28;20210;-88
2021/09/30 03:23:38;;;;;;;11.80;2.67;;;10.50;89.70;;;;;;5073964;28;20254;-88
2021/09/30 03:26:05;;;;;;;6.80;1.83;;;10.50;89.50;;;;;;5072535;28;20670;-88
2021/09/30 03:28:31;;;;;;;10.13;1.80;;;10.50;89.30;;;;;;5072489;28;20210;-88
2021/09/30 03:31:00;;;;;;;11.30;1.97;;;10.50;89.10;;;;;;5072485;28;20214;-88
2021/09/30 03:33:26;;;;;;;9.10;1.87;;;10.50;89.20;;;;;;5071819;28;20167;-88
2021/09/30 03:35:52;;;;;;;6.30;1.70;;;10.50;88.80;;;;;;5073556;28;20170;-88
2021/09/30 03:38:20;;;;;;;9.83;1.33;;;10.50;88.70;;;;;;5073789;28;20198;-88
2021/09/30 03:40:47;;;;;;;10.43;1.90;;;10.50;89.20;;;;;;5072257;28;20212;-88
2021/09/30 03:43:12;;;;;;;6.50;1.63;;;10.60;88.50;;;;;;5072336;28;20613;-88
2021/09/30 03:45:39;;;;;;;7.53;1.70;;;10.60;88.40;;;;;;5072215;28;20199;-88
2021/09/30 03:48:06;;;;;;;15.50;2.80;;;10.50;88.70;;;;;;5073326;28;20252;-88
2021/09/30 04:01:27;;;;;;;5.97;1.80;;;10.60;88.30;;;;;;5073635;28;20186;-88
2021/09/30 04:03:53;;;;;;;7.03;1.47;;;10.50;88.00;;;;;;5073896;28;20612;-88
2021/09/30 04:06:19;;;;;;;9.03;1.90;;;10.50;88.30;;;;;;5071994;28;20175;-88
2021/09/30 04:08:45;;;;;;;5.10;1.53;;;10.60;88.30;;;;;;5071905;28;20214;-88
2021/09/30 04:11:11;;;;;;;6.30;1.63;;;10.60;88.50;;;;;;5073485;28;20529;-88
2021/09/30 04:13:37;;;;;;;4.17;1.27;;;10.60;88.00;;;;;;5073431;28;20179;-89
2021/09/30 04:16:03;;;;;;;12.43;2.10;;;10.60;88.20;;;;;;5071996;28;20175;-88
2021/09/30 04:18:29;;;;;;;8.50;1.53;;;10.60;88.20;;;;;;5072282;28;20206;-88
2021/09/30 04:20:55;;;;;;;12.70;1.83;;;10.50;88.40;;;;;;5071893;28;20639;-88
2021/09/30 04:23:21;;;;;;;8.87;1.77;;;10.50;88.10;;;;;;5073042;28;20640;-88
2021/09/30 04:25:46;;;;;;;5.83;1.60;;;10.60;88.30;;;;;;5071803;28;20194;-88
2021/09/30 04:28:14;;;;;;;4.97;1.90;;;10.60;88.50;;;;;;5073238;28;20278;-88
2021/09/30 04:30:40;;;;;;;8.80;1.63;;;10.60;88.10;;;;;;5071873;28;20204;-88
2021/09/30 04:33:06;;;;;;;11.40;2.17;;;10.60;88.20;;;;;;5071956;28;20715;-88
2021/09/30 04:35:32;;;;;;;8.73;1.90;;;10.70;87.50;;;;;;5073103;28;20255;-88
2021/09/30 04:37:58;;;;;;;7.60;1.60;;;10.60;87.70;;;;;;5072862;28;20285;-88
2021/09/30 04:40:24;;;;;;;11.17;1.57;;;10.50;88.10;;;;;;5071759;28;20274;-88
2021/09/30 04:42:50;;;;;;;8.30;2.27;;;10.60;87.70;;;;;;5071649;28;20184;-88
2021/09/30 04:45:16;;;;;;;5.53;1.30;;;10.60;87.80;;;;;;5076064;28;20253;-88
2021/09/30 04:47:41;;;;;;;9.40;1.53;;;10.60;88.40;;;;;;5075263;28;20304;-88
2021/09/30 04:50:08;;;;;;;10.27;1.50;;;10.50;88.30;;;;;;5075425;28;20266;-88
2021/09/30 04:52:33;;;;;;;9.37;1.80;;;10.50;88.50;;;;;;5076550;28;20179;-88
2021/09/30 04:54:59;;;;;;;6.77;1.50;;;10.50;88.20;;;;;;5076867;28;20216;-88
2021/09/30 04:57:25;;;;;;;12.83;1.90;;;10.40;88.50;;;;;;5075282;28;20183;-88
2021/09/30 04:59:50;;;;;;;14.50;1.67;;;10.30;88.60;;;;;;5076356;28;20195;-88
2021/09/30 05:02:16;;;;;;;4.40;1.30;;;10.30;88.80;;;;;;5075217;28;20631;-88
2021/09/30 05:04:41;;;;;;;18.10;1.87;;;10.20;88.90;;;;;;5076553;28;20175;-88
2021/09/30 05:07:07;;;;;;;5.87;1.80;;;10.20;89.40;;;;;;5075698;28;20181;-88
2021/09/30 05:09:33;;;;;;;5.60;1.50;;;10.20;89.00;;;;;;5074939;28;20700;-88
2021/09/30 05:12:02;;;;;;;14.97;2.77;;;10.20;88.90;;;;;;5076304;28;20262;-88
2021/09/30 05:14:28;;;;;;;8.17;1.53;;;10.10;88.80;;;;;;5075018;28;20276;-88
2021/09/30 05:16:54;;;;;;;6.87;1.30;;;10.10;88.70;;;;;;5074933;28;20614;-88
2021/09/30 05:19:20;;;;;;;8.60;2.00;;;10.10;88.90;;;;;;5074893;28;20727;-88
2021/09/30 05:21:46;;;;;;;13.60;2.30;;;10.10;88.60;;;;;;5076056;28;20274;-88
2021/09/30 05:24:12;;;;;;;7.53;1.83;;;10.00;88.50;;;;;;5074766;28;20331;-88
2021/09/30 05:26:38;;;;;;;12.20;1.90;;;10.00;88.70;;;;;;5075981;28;20266;-88
2021/09/30 05:29:04;;;;;;;7.37;1.83;;;10.00;88.60;;;;;;5074552;28;20692;-88
2021/09/30 05:31:30;;;;;;;11.40;1.83;;;10.00;88.50;;;;;;5075874;28;20572;-88
2021/09/30 05:33:56;;;;;;;9.03;2.10;;;10.00;88.80;;;;;;5075428;28;20249;-88
2021/09/30 05:36:22;;;;;;;3.97;1.60;;;10.10;88.40;;;;;;5074601;28;20197;-87
2021/09/30 05:38:49;;;;;;;5.23;1.60;;;10.10;88.10;;;;;;5074448;28;20235;-88
2021/09/30 05:41:15;;;;;;;2.53;1.10;;;10.00;88.10;;;;;;5074553;28;20189;-88
2021/09/30 05:43:46;;;;;;;7.97;1.70;;;10.00;87.70;;;;;;5074497;28;20622;-87
2021/09/30 05:46:14;;;;;;;9.70;2.70;;;10.00;87.80;;;;;;5075086;28;20627;-87
2021/09/30 05:48:40;;;;;;;2.93;1.07;;;10.10;87.90;;;;;;5076087;28;20214;-88
2021/09/30 05:51:06;;;;;;;9.87;2.10;;;10.00;87.70;;;;;;5074605;28;20619;-88
2021/09/30 05:53:31;;;;;;;9.27;1.90;;;10.00;87.90;;;;;;5076315;28;20181;-88
2021/09/30 05:55:57;;;;;;;8.80;1.30;;;10.10;87.40;;;;;;5073721;28;20278;-88
2021/09/30 05:58:23;;;;;;;12.57;2.43;;;10.10;87.30;;;;;;5073973;28;20215;-88
2021/09/30 06:14:33;;;;;;;12.30;1.87;;;10.00;87.50;;;;;;5075634;28;20170;-89
2021/09/30 06:16:59;;;;;;;6.33;1.27;;;10.20;86.80;;;;;;5073850;28;20163;-88
2021/09/30 06:19:24;;;;;;;7.07;1.60;;;10.10;87.00;;;;;;5073952;28;20294;-88
2021/09/30 06:21:52;;;;;;;3.63;1.20;;;10.20;87.20;;;;;;5073842;28;20180;-88
2021/09/30 06:24:19;;;;;;;5.47;1.53;;;10.30;86.60;;;;;;5073771;28;20179;-87
2021/09/30 06:26:46;;;;;;;4.13;1.60;;;10.30;86.50;;;;;;5073655;28;20655;-88
2021/09/30 06:29:12;;;;;;;3.53;1.30;;;10.30;86.60;;;;;;5073585;28;20217;-88
2021/09/30 06:31:38;;;;;;;11.97;2.17;;;10.30;86.40;;;;;;5073509;28;20182;-87
2021/09/30 06:34:04;;;;;;;3.37;1.20;;;10.30;86.60;;;;;;5073582;28;20176;-88
2021/09/30 06:36:30;;;;;;;3.57;1.30;;;10.30;86.90;;;;;;5073368;28;20179;-88
2021/09/30 06:38:55;;;;;;;9.00;1.83;;;10.30;86.60;;;;;;5074524;28;20200;-89
2021/09/30 06:41:21;;;;;;;7.43;1.63;;;10.30;86.70;;;;;;5073346;28;20226;-89
2021/09/30 06:43:47;;;;;;;6.33;1.90;;;10.30;86.70;;;;;;5073369;28;20209;-88
2021/09/30 06:46:12;;;;;;;6.17;2.23;;;10.40;87.20;;;;;;5073292;28;20218;-88
2021/09/30 06:48:38;;;;;;;7.07;1.80;;;10.40;86.80;;;;;;5073087;28;20209;-89
2021/09/30 06:51:05;;;;;;;13.80;2.00;;;10.50;87.00;;;;;;5073122;28;20263;-89
2021/09/30 06:53:31;;;;;;;5.70;1.20;;;10.50;86.90;;;;;;5073100;28;20171;-88
2021/09/30 06:56:03;;;;;;;6.53;2.13;;;10.40;87.00;;;;;;5074213;28;20182;-88
2021/09/30 06:58:29;;;;;;;9.07;1.63;;;10.50;87.30;;;;;;5073013;28;20336;-89
2021/09/30 07:00:58;;;;;;;4.63;1.57;;;10.40;87.40;;;;;;5073120;28;20203;-89
2021/09/30 07:03:26;;;;;;;5.97;1.83;;;10.40;87.00;;;;;;5072867;28;20179;-89
2021/09/30 07:05:52;;;;;;;5.37;1.67;;;10.50;87.50;;;;;;5072720;28;20205;-88
2021/09/30 07:08:18;;;;;;;4.53;1.47;;;10.50;87.20;;;;;;5071830;28;20675;-89
2021/09/30 07:10:44;;;;;;;6.30;1.70;;;10.50;87.20;;;;;;5072892;28;20309;-89
2021/09/30 07:13:09;;;;;;;9.03;2.43;;;10.50;87.40;;;;;;5073923;28;20579;-89
2021/09/30 07:15:35;;;;;;;8.03;2.00;;;10.50;86.90;;;;;;5072827;28;20266;-89
2021/09/30 07:18:18;;;;;;;6.40;1.63;;;10.50;87.00;;;;;;5073806;28;20304;-89
2021/09/30 07:20:45;;;;;;;3.20;1.40;;;10.60;86.80;;;;;;5072701;28;20174;-89
2021/09/30 07:23:10;;;;;;;4.83;1.60;;;10.60;86.50;;;;;;5072672;28;20176;-89
2021/09/30 07:25:36;;;;;;;5.13;1.20;;;10.70;86.40;;;;;;5072561;28;20182;-89
2021/09/30 07:28:02;;;;;;;8.87;1.87;;;10.80;86.10;;;;;;5072281;28;20218;-88
2021/09/30 07:30:27;;;;;;;6.67;2.20;;;10.80;86.60;;;;;;5073238;28;20197;-89
2021/09/30 07:32:53;;;;;;;5.13;1.43;;;10.90;86.30;;;;;;5072468;28;20662;-88
2021/09/30 07:35:19;;;;;;;4.80;1.30;;;10.80;85.70;;;;;;5073958;28;20175;-88
2021/09/30 07:37:45;;;;;;;5.73;1.90;;;10.90;86.10;;;;;;5072429;28;20235;-88
2021/09/30 07:40:14;;;;;;;10.27;1.80;;;11.00;85.90;;;;;;5072389;28;20201;-88
2021/09/30 07:42:40;;;;;;;5.37;1.37;;;11.10;86.10;;;;;;5072381;28;20180;-88
2021/09/30 07:45:06;;;;;;;9.27;1.70;;;11.10;85.10;;;;;;5072328;28;20187;-88
2021/09/30 07:47:32;;;;;;;13.10;2.33;;;11.10;85.50;;;;;;5073543;28;20650;-89
2021/09/30 07:49:58;;;;;;;5.27;1.57;;;11.10;85.40;;;;;;5072238;28;20269;-88
2021/09/30 07:52:23;;;;;;;3.53;1.37;;;11.10;85.90;;;;;;5072296;28;20280;-88
2021/09/30 07:54:49;;;;;;;5.73;1.10;;;11.10;85.50;;;;;;5072136;28;20189;-88
2021/09/30 07:57:15;;;;;;;4.80;1.10;;;11.20;85.10;;;;;;5072150;28;20207;-88
2021/09/30 07:59:41;;;;;;;6.87;1.40;;;11.20;85.30;;;;;;5071963;28;20246;-88
2021/09/30 08:02:07;;;;;;;2.40;1.20;;;11.20;84.30;;;;;;5072132;28;20186;-88
2021/09/30 08:04:32;;;;;;;5.30;1.57;;;11.30;85.00;;;;;;5072564;28;20179;-89
2021/09/30 08:06:58;;;;;;;7.47;2.87;;;11.30;84.20;;;;;;5072127;28;20193;-88
2021/09/30 08:09:24;;;;;;;3.20;1.13;;;11.30;85.00;;;;;;5071857;28;20301;-88
2021/09/30 08:11:50;;;;;;;2.30;1.10;;;11.40;84.70;;;;;;5073238;28;20636;-89
2021/09/30 08:14:15;;;;;;;6.20;1.60;;;11.40;83.80;;;;;;5072004;28;20185;-87
2021/09/30 08:16:41;;;;;;;7.53;1.47;;;11.50;84.10;;;;;;5071905;28;20218;-87
2021/09/30 08:19:07;;;;;;;4.10;1.40;;;11.50;83.90;;;;;;5072863;28;20306;-87
2021/09/30 08:21:32;;;;;;;5.30;1.30;;;11.60;84.40;;;;;;5076338;28;20270;-87
2021/09/30 08:23:59;;;;;;;9.53;2.30;;;11.60;84.40;;;;;;5075800;28;20179;-87
2021/09/30 08:26:25;;;;;;;5.73;1.60;;;11.60;83.70;;;;;;5075747;28;20569;-87
2021/09/30 08:28:54;;;;;;;5.20;1.90;;;11.70;84.50;;;;;;5076987;28;20214;-87
2021/09/30 08:31:21;;;;;;;8.83;2.03;;;11.80;84.60;;;;;;5075945;28;20183;-87
2021/09/30 08:33:49;;;;;;;4.87;1.47;;;11.90;84.00;;;;;;5075646;28;20630;-87
2021/09/30 08:36:15;;;;;;;4.80;1.20;;;11.90;83.40;;;;;;5075703;28;20183;-87
2021/09/30 08:38:42;;;;;;;11.93;1.63;;;12.00;84.10;;;;;;5076827;28;20611;-87
2021/09/30 08:41:09;;;;;;;4.97;1.00;;;11.90;84.50;;;;;;5076894;28;20172;-88
2021/09/30 08:43:34;;;;;;;8.30;1.43;;;11.80;83.30;;;;;;5076816;28;20171;-87
2021/09/30 08:46:00;;;;;;;3.17;1.73;;;11.90;83.20;;;;;;5076781;28;20175;-87
2021/09/30 08:48:26;;;;;;;9.67;2.00;;;12.20;83.10;;;;;;5075434;28;20769;-87
2021/09/30 08:50:53;;;;;;;7.10;2.30;;;12.30;82.60;;;;;;5076602;28;20179;-87
2021/09/30 08:53:19;;;;;;;7.67;1.80;;;12.30;81.20;;;;;;5075445;28;20178;-87
2021/09/30 08:55:45;;;;;;;4.63;2.00;;;12.30;82.40;;;;;;5075330;28;20270;-87
2021/09/30 08:58:11;;;;;;;6.83;1.90;;;12.40;81.10;;;;;;5075091;28;20724;-87
2021/09/30 09:00:42;;;;;;;6.97;1.73;;;12.60;82.60;;;;;;5075310;28;20172;-87
2021/09/30 09:03:08;;;;;;;6.13;1.67;;;12.70;82.10;;;;;;5076416;28;20155;-87
2021/09/30 09:05:40;;;;;;;5.27;1.77;;;12.70;81.10;;;;;;5075167;28;20194;-87
2021/09/30 09:08:08;;;;;;;11.80;1.77;;;12.50;82.00;;;;;;5076226;28;20207;-87
2021/09/30 09:10:37;;;;;;;4.17;1.60;;;12.60;81.80;;;;;;5076443;28;20171;-87
2021/09/30 09:13:15;;;;;;;4.30;1.50;;;12.80;80.80;;;;;;5074999;28;20171;-87
2021/09/30 09:15:43;;;;;;;4.90;1.43;;;13.00;80.40;;;;;;5074928;28;20180;-87
2021/09/30 09:18:12;;;;;;;8.77;2.27;;;13.00;79.50;;;;;;5076087;28;20652;-87
2021/09/30 09:20:38;;;;;;;8.83;1.73;;;13.20;81.60;;;;;;5074853;28;20183;-87
2021/09/30 09:23:04;;;;;;;3.50;1.37;;;13.00;79.40;;;;;;5074849;28;20562;-87
2021/09/30 09:25:30;;;;;;;5.80;1.60;;;12.90;79.60;;;;;;5074781;28;20183;-87
2021/09/30 09:27:59;;;;;;;9.77;2.63;;;12.90;79.40;;;;;;5076135;28;20256;-87
2021/09/30 09:30:42;;;;;;;2.20;1.33;;;13.00;79.30;;;;;;5073880;28;20305;-87
2021/09/30 09:33:39;;;;;;;9.67;2.20;;;13.10;79.00;;;;;;5075058;28;20168;-87
2021/09/30 09:36:13;;;;;;;7.37;2.40;;;13.00;79.20;;;;;;5074648;28;20190;-87
2021/09/30 09:38:45;;;;;;;7.10;3.10;;;13.30;80.00;;;;;;5074596;28;20674;-87
2021/09/30 09:41:26;;;;;;;5.80;1.83;;;13.30;79.20;;;;;;5075866;28;20175;-87
2021/09/30 09:43:54;;;;;;;13.60;2.37;;;13.40;79.00;;;;;;5075763;28;20673;-87
2021/09/30 09:46:23;;;;;;;3.80;1.30;;;13.50;78.90;;;;;;5074441;28;20647;-87
2021/09/30 09:48:58;;;;;;;9.10;2.47;;;13.40;78.90;;;;;;5075434;28;20204;-87
2021/09/30 09:51:25;;;;;;;13.50;3.60;;;13.20;79.10;;;;;;5075841;28;20171;-87
2021/09/30 09:53:56;;;;;;;7.70;2.00;;;13.10;80.40;;;;;;5074330;28;20171;-87
2021/09/30 09:56:22;;;;;;;8.13;2.30;;;13.00;79.30;;;;;;5075801;28;20156;-87
2021/09/30 09:58:55;;;;;;;7.90;2.70;;;13.20;80.30;;;;;;5073927;28;20215;-86
2021/09/30 10:01:42;;;;;;;5.60;1.73;;;13.30;79.80;;;;;;5074159;28;20194;-87
2021/09/30 10:04:08;;;;;;;15.37;3.03;;;13.40;78.80;;;;;;5070848;28;20194;-87
2021/09/30 10:06:36;;;;;;;10.83;3.10;;;13.50;79.80;;;;;;5074032;28;20202;-87
2021/09/30 10:09:08;;;;;;;9.83;3.33;;;13.60;79.10;;;;;;5073772;28;20211;-87
2021/09/30 10:11:35;;;;;;;7.73;2.47;;;13.80;79.50;;;;;;5075192;28;20623;-87
2021/09/30 10:14:06;;;;;;;11.27;4.00;;;13.80;79.60;;;;;;5073764;28;20175;-87
2021/09/30 10:16:34;;;;;;;8.63;2.77;;;13.90;79.60;;;;;;5075143;28;20194;-87
2021/09/30 10:19:02;;;;;;;10.57;2.97;;;13.80;78.30;;;;;;5074893;28;20230;-87
2021/09/30 10:21:30;;;;;;;6.87;2.80;;;13.70;79.60;;;;;;5074880;28;20658;-86
2021/09/30 10:24:26;;;;;;;10.73;3.43;;;13.80;78.80;;;;;;5073610;28;20179;-86
2021/09/30 10:26:57;;;;;;;9.20;2.53;;;14.10;77.80;;;;;;5074987;28;20662;-87
2021/09/30 10:29:42;;;;;;;7.10;3.13;;;14.10;79.20;;;;;;5074704;28;20206;-89
2021/09/30 10:32:08;;;;;;;10.60;2.73;;;14.00;77.70;;;;;;5075243;28;20165;-88
2021/09/30 10:34:37;;;;;;;8.97;3.10;;;14.30;77.90;;;;;;5074709;28;20224;-88
2021/09/30 10:37:22;;;;;;;17.57;3.13;;;14.30;76.60;;;;;;5073448;28;20206;-88
2021/09/30 10:40:20;;;;;;;11.87;3.03;;;13.80;78.20;;;;;;5073521;28;20224;-88
2021/09/30 10:42:58;;;;;;;10.70;3.07;;;13.60;80.40;;;;;;5074415;28;20640;-88
2021/09/30 10:45:38;;;;;;;14.47;3.80;;;13.30;81.20;;;;;;5074191;28;20228;-88
2021/09/30 10:48:24;;;;;;;14.60;3.33;;;13.10;83.60;;;;;;5073666;28;20578;-88
2021/09/30 10:50:56;;;;;;;13.57;3.83;;;13.00;84.10;;;;;;5069400;28;20186;-88
2021/09/30 10:53:48;;;;;;;13.17;3.40;;;13.10;83.00;;;;;;5073092;28;20171;-89
2021/09/30 10:56:41;;;;;;;15.70;3.17;;;13.30;82.30;;;;;;5074244;28;20188;-88
2021/09/30 10:59:09;;;;;;;16.33;4.07;;;13.50;82.10;;;;;;5074297;28;20226;-89
2021/09/30 11:01:47;;;;;;;10.73;3.13;;;13.70;81.60;;;;;;5072975;28;20182;-88
2021/09/30 11:04:14;;;;;;;12.53;3.43;;;13.80;80.80;;;;;;5074154;28;20164;-88
2021/09/30 11:06:40;;;;;;;11.87;3.07;;;14.00;80.50;;;;;;5072772;28;20661;-88
2021/09/30 11:09:21;;;;;;;17.00;3.47;;;14.20;78.90;;;;;;5072990;28;20231;-88
2021/09/30 11:12:05;;;;;;;5.33;2.30;;;14.40;77.00;;;;;;5072747;28;20550;-88
2021/09/30 11:14:31;;;;;;;11.50;2.63;;;14.70;77.10;;;;;;5073981;28;20151;-88
2021/09/30 11:16:57;;;;;;;16.13;4.93;;;15.00;73.60;;;;;;5072663;28;20640;-89
2021/09/30 11:19:43;;;;;;;15.77;2.93;;;14.90;75.50;;;;;;5072607;28;20199;-88
2021/09/30 11:22:12;;;;;;;17.43;2.30;;;15.10;73.90;;;;;;5073866;28;20506;-88
2021/09/30 11:24:51;;;;;;;14.60;2.83;;;14.80;70.50;;;;;;5072613;28;20183;-88
2021/09/30 11:27:18;;;;;;;14.27;2.73;;;14.80;73.10;;;;;;5072666;28;20174;-88
2021/09/30 11:29:45;;;;;;;10.80;3.17;;;15.30;74.00;;;;;;5073829;28;20221;-88
2021/09/30 11:32:13;;;;;;;10.50;2.70;;;15.30;71.30;;;;;;5072358;28;20236;-88
2021/09/30 11:34:41;;;;;;;11.27;2.73;;;15.60;71.20;;;;;;5072368;28;20199;-88
2021/09/30 11:37:26;;;;;;;11.40;2.90;;;15.50;70.30;;;;;;5073559;28;20207;-88
2021/09/30 11:39:58;;;;;;;11.37;2.93;;;15.50;69.90;;;;;;5072363;28;20191;-88
2021/09/30 11:42:33;;;;;;;7.53;2.63;;;15.50;71.30;;;;;;5073522;28;20177;-88
2021/09/30 11:45:01;;;;;;;12.93;2.93;;;15.20;68.80;;;;;;5072400;28;20257;-88
2021/09/30 11:47:30;;;;;;;8.70;2.30;;;15.10;68.70;;;;;;5073399;28;20179;-88
2021/09/30 11:49:57;;;;;;;13.33;2.90;;;15.00;69.70;;;;;;5073425;28;20203;-88
2021/09/30 11:52:23;;;;;;;15.53;3.17;;;15.20;71.10;;;;;;5073477;28;20653;-88
2021/09/30 11:54:49;;;;;;;9.70;2.53;;;15.20;70.70;;;;;;5072809;28;20254;-88
2021/09/30 11:57:26;;;;;;;9.60;2.53;;;15.00;68.10;;;;;;5072123;28;20179;-88
2021/09/30 12:00:06;;;;;;;7.07;2.33;;;15.40;69.00;;;;;;5072225;28;20199;-88
2021/09/30 12:02:31;;;;;;;13.63;2.97;;;15.60;65.10;;;;;;5072079;28;20168;-88
2021/09/30 12:04:57;;;;;;;11.87;2.70;;;15.50;69.10;;;;;;5071984;28;20551;-88
2021/09/30 12:07:25;;;;;;;16.15;3.03;;;15.80;69.80;;;;;;5072076;28;20214;-89
2021/09/30 12:09:58;;;;;;;15.90;2.35;;;15.90;69.40;;;;;;5072211;28;20314;-88
2021/09/30 12:12:32;;;;;;;7.95;2.10;;;16.00;69.00;;;;;;5072360;28;20175;-87
2021/09/30 12:14:58;;;;;;;12.13;2.35;;;15.80;65.50;;;;;;5073146;28;20174;-88
2021/09/30 12:17:36;;;;;;;12.03;2.87;;;15.80;66.70;;;;;;5071792;28;20542;-88
2021/09/30 12:20:08;;;;;;;12.35;2.55;;;15.90;67.80;;;;;;5073136;28;20507;-89
2021/09/30 12:22:37;;;;;;;13.57;3.30;;;15.90;64.20;;;;;;5073068;28;20166;-88
2021/09/30 12:25:07;;;;;;;7.60;2.45;;;15.90;67.10;;;;;;5071854;28;20657;-88
2021/09/30 12:27:36;;;;;;;10.60;2.97;;;15.90;65.30;;;;;;5071512;28;20691;-88
2021/09/30 12:30:20;;;;;;;10.90;2.65;;;15.80;66.00;;;;;;5071823;28;20183;-88
2021/09/30 12:32:48;;;;;;;12.27;2.78;;;15.30;67.50;;;;;;5073047;28;20254;-88
2021/09/30 12:35:27;;;;;;;14.88;2.92;;;15.40;66.80;;;;;;5071703;28;20187;-88
2021/09/30 12:37:55;;;;;;;10.95;2.67;;;15.80;65.60;;;;;;5071696;28;20222;-88
2021/09/30 12:40:27;;;;;;;5.40;2.08;;;15.90;64.50;;;;;;5072987;28;20707;-87
2021/09/30 12:43:00;;;;;;;10.43;2.38;;;15.50;66.90;;;;;;5071751;28;20175;-87
2021/09/30 12:45:28;;;;;;;7.72;2.20;;;15.70;65.10;;;;;;5072866;28;20332;-88
2021/09/30 12:48:06;;;;;;;19.27;5.03;;;15.50;64.60;;;;;;5073009;28;20195;-87
2021/09/30 12:50:47;;;;;;;10.52;2.95;;;15.20;65.00;;;;;;5071604;28;20175;-87
2021/09/30 12:53:16;;;;;;;8.43;2.00;;;15.20;64.80;;;;;;5071625;28;20636;-87
2021/09/30 12:55:42;;;;;;;12.98;1.85;;;15.30;63.10;;;;;;5071550;28;20171;-87
2021/09/30 12:58:27;;;;;;;10.17;2.10;;;15.30;62.20;;;;;;5072547;28;20210;-88
2021/09/30 13:00:56;;;;;;;10.55;1.73;;;15.20;63.50;;;;;;5072786;28;20695;-88
2021/09/30 13:03:23;;;;;;;6.27;1.97;;;15.20;62.70;;;;;;5072331;28;20175;-87
2021/09/30 13:05:54;;;;;;;10.10;2.20;;;15.40;62.30;;;;;;5071938;28;20179;-87
2021/09/30 13:08:40;;;;;;;10.57;1.93;;;15.90;61.90;;;;;;5075006;28;20256;-87
2021/09/30 13:11:25;;;;;;;11.10;1.80;;;15.60;60.20;;;;;;5075052;28;20190;-87
2021/09/30 13:14:29;;;;;;;9.48;2.15;;;15.70;61.40;;;;;;5076389;28;20174;-88
2021/09/30 13:17:16;;;;;;;3.45;0.90;;;16.00;60.70;;;;;;5076554;28;20215;-88
2021/09/30 13:19:49;;;;;;;4.85;1.85;;;15.80;58.80;;;;;;5074827;28;20690;-88
2021/09/30 13:22:33;;;;;;;8.70;2.10;;;15.80;60.40;;;;;;5074895;28;20171;-88
2021/09/30 13:25:05;;;;;;;8.13;1.83;;;15.90;60.10;;;;;;5074882;28;20182;-88
2021/09/30 13:27:35;;;;;;;5.83;1.77;;;16.00;60.80;;;;;;5074768;28;20220;-88
2021/09/30 13:30:02;;;;;;;3.63;1.30;;;15.80;62.50;;;;;;5076014;28;20171;-88
2021/09/30 13:32:28;;;;;;;5.70;1.65;;;15.30;62.70;;;;;;5075086;28;20179;-88
2021/09/30 13:34:56;;;;;;;10.57;2.27;;;15.20;64.70;;;;;;5074647;28;20179;-88
2021/09/30 13:37:22;;;;;;;12.48;2.45;;;15.10;65.90;;;;;;5074860;28;20175;-88
2021/09/30 13:39:49;;;;;;;10.83;2.63;;;15.00;66.80;;;;;;5074548;28;20175;-88
2021/09/30 13:42:15;;;;;;;7.83;2.13;;;14.90;66.70;;;;;;5074605;28;20190;-89
2021/09/30 13:44:40;;;;;;;9.63;2.37;;;14.80;68.20;;;;;;5074446;28;20175;-88
2021/09/30 13:47:06;;;;;;;8.93;1.60;;;14.20;72.30;;;;;;5074518;28;20183;-88
2021/09/30 13:49:32;;;;;;;6.73;1.57;;;13.70;74.80;;;;;;5074296;28;20245;-88
2021/09/30 13:51:58;;;;;;;6.33;1.60;;;13.50;72.80;;;;;;5075484;28;20258;-88
2021/09/30 13:54:23;;;;;;;5.00;2.13;;;13.60;73.20;;;;;;5074356;28;20176;-88
2021/09/30 13:56:49;;;;;;;3.70;1.30;;;13.60;71.60;;;;;;5074227;28;20366;-88
2021/09/30 13:59:15;;;;;;;7.23;1.67;;;13.40;73.50;;;;;;5074218;28;20227;-88
2021/09/30 14:01:40;;;;;;;4.77;1.40;;;13.30;74.60;;;;;;5074247;28;20218;-88
2021/09/30 14:04:06;;;;;;;6.27;1.60;;;13.50;74.40;;;;;;5074100;28;20205;-88
2021/09/30 14:06:32;;;;;;;10.33;2.90;;;13.80;74.00;;;;;;5075573;28;20207;-88
2021/09/30 14:08:57;;;;;;;5.00;1.60;;;14.30;73.80;;;;;;5073974;28;20202;-88
2021/09/30 14:11:24;;;;;;;7.07;1.60;;;14.70;70.80;;;;;;5074053;28;20266;-88
2021/09/30 14:13:53;;;;;;;3.90;1.20;;;14.60;69.20;;;;;;5074028;28;20179;-88
2021/09/30 14:16:20;;;;;;;10.27;1.70;;;14.70;69.60;;;;;;5073789;28;20606;-88
2021/09/30 14:18:46;;;;;;;5.10;1.50;;;14.80;69.90;;;;;;5073993;28;20195;-88
2021/09/30 14:21:12;;;;;;;7.33;1.70;;;14.90;70.60;;;;;;5073760;28;20183;-88
2021/09/30 14:23:38;;;;;;;8.23;1.90;;;15.20;69.50;;;;;;5073805;28;20305;-88
2021/09/30 14:26:04;;;;;;;6.80;1.70;;;15.00;68.60;;;;;;5073748;28;20704;-88
2021/09/30 14:28:30;;;;;;;10.40;1.80;;;14.80;68.10;;;;;;5073487;28;20285;-88
2021/09/30 14:30:56;;;;;;;11.57;2.67;;;14.60;69.10;;;;;;5073607;28;20190;-88
2021/09/30 14:33:30;;;;;;;8.77;2.07;;;14.50;69.00;;;;;;5073514;28;20176;-88
2021/09/30 14:35:57;;;;;;;9.53;1.73;;;14.50;68.80;;;;;;5073464;28;20251;-89
2021/09/30 14:38:23;;;;;;;8.23;2.20;;;14.50;69.30;;;;;;5073444;28;20237;-88
2021/09/30 14:40:50;;;;;;;8.43;2.00;;;14.40;69.40;;;;;;5074654;28;20567;-88
2021/09/30 14:43:22;;;;;;;6.67;1.80;;;14.40;70.40;;;;;;5073352;28;20175;-88
2021/09/30 14:45:49;;;;;;;8.60;2.20;;;14.30;69.10;;;;;;5073258;28;20175;-89
2021/09/30 14:48:15;;;;;;;8.83;2.53;;;14.30;69.90;;;;;;5073076;28;20687;-89
2021/09/30 14:50:42;;;;;;;9.10;2.10;;;14.40;71.00;;;;;;5073499;28;20171;-88
2021/09/30 14:53:09;;;;;;;12.30;2.27;;;14.40;70.60;;;;;;5074421;28;20171;-89
2021/09/30 14:55:35;;;;;;;9.27;2.10;;;14.40;70.50;;;;;;5073381;28;20262;-89
2021/09/30 14:58:01;;;;;;;6.70;2.30;;;14.70;69.00;;;;;;5073337;28;20632;-89
2021/09/30 15:00:27;;;;;;;6.30;2.27;;;15.00;68.40;;;;;;5074289;28;20195;-88
2021/09/30 15:02:52;;;;;;;7.03;2.10;;;15.10;65.20;;;;;;5073075;28;20179;-89
2021/09/30 15:05:18;;;;;;;7.50;1.80;;;15.10;63.40;;;;;;5072905;28;20178;-88
2021/09/30 15:07:44;;;;;;;7.75;2.63;;;15.20;62.70;;;;;;5072733;28;20195;-88
2021/09/30 15:10:10;;;;;;;8.47;2.20;;;15.00;63.30;;;;;;5073119;28;20179;-89
2021/09/30 15:12:36;;;;;;;9.30;2.23;;;14.90;63.70;;;;;;5072772;28;20220;-88
2021/09/30 15:15:03;;;;;;;6.57;2.03;;;14.70;63.20;;;;;;5074007;28;20246;-88
2021/09/30 15:22:34;;;;;;;7.87;1.60;;;14.80;64.70;;;;;;5074347;28;20206;-88
2021/09/30 15:25:00;;;;;;;7.83;2.50;;;14.80;64.00;;;;;;5072554;28;20534;-88
2021/09/30 15:27:25;;;;;;;9.37;2.03;;;14.80;63.60;;;;;;5072492;28;20258;-88
2021/09/30 15:29:51;;;;;;;5.37;1.57;;;14.80;62.70;;;;;;5072107;28;20207;-88
2021/09/30 15:32:17;;;;;;;5.43;1.83;;;14.60;63.60;;;;;;5072437;28;20690;-88
2021/09/30 15:34:43;;;;;;;5.63;1.57;;;14.40;62.80;;;;;;5072409;28;20627;-88
2021/09/30 15:37:08;;;;;;;7.43;1.63;;;14.30;63.10;;;;;;5073630;28;20167;-88
2021/09/30 15:39:34;;;;;;;8.90;2.13;;;14.20;64.20;;;;;;5073508;28;20191;-88
2021/09/30 15:42:00;;;;;;;7.77;1.63;;;14.10;64.60;;;;;;5072335;28;20175;-88
2021/09/30 15:44:27;;;;;;;7.73;2.37;;;14.00;65.20;;;;;;5073469;28;20544;-88
2021/09/30 15:46:54;;;;;;;6.80;1.63;;;13.90;65.70;;;;;;5072298;28;20553;-88
2021/09/30 15:49:20;;;;;;;6.33;1.60;;;13.90;64.70;;;;;;5072084;28;20199;-88
2021/09/30 15:51:46;;;;;;;6.53;1.70;;;13.90;64.90;;;;;;5072315;28;20171;-88